Time;durP1;ratioP1;P1;durP2;ratioP2;P2;SDS_P1;SDS_P2;PMS_P1;PMS_P2;Temp;Humidity;BMP_temperature;BMP_pressure;BME280_temperature;BME280_humidity;BME280_pressure;Samples;Min_cycle;Max_cycle;Signal;HPM_P1;HPM_P2
2022/12/17 13:05:54;;;;;;;40.30;21.02;;;;;;;;;;4994570;28;20053;-65
2022/12/17 13:08:21;;;;;;;42.42;21.73;;;;;;;;;;4993963;28;20030;-65
2022/12/17 13:10:49;;;;;;;46.33;22.35;;;;;;;;;;4993773;28;20439;-67
2022/12/17 13:13:15;;;;;;;44.45;21.98;;;;;;;;;;4993236;28;20084;-67
2022/12/17 13:15:44;;;;;;;43.53;21.80;;;;;;;;;;4993865;28;20132;-65
2022/12/17 13:18:23;;;;;;;50.20;21.83;;;;;;;;;;4993661;28;20066;-66
2022/12/17 13:20:58;;;;;;;46.65;19.77;;;;;;;;;;4993591;28;20038;-67
2022/12/17 13:23:35;;;;;;;39.28;20.35;;;;;;;;;;4992962;28;20089;-66
2022/12/17 13:26:10;;;;;;;41.42;20.10;;;;;;;;;;4993453;28;20057;-67
2022/12/17 13:28:37;;;;;;;35.63;19.40;;;;;;;;;;4993755;28;20026;-67
2022/12/17 13:31:04;;;;;;;43.38;20.52;;;;;;;;;;4993483;28;20033;-66
2022/12/17 13:33:30;;;;;;;38.33;20.00;;;;;;;;;;4991378;28;20454;-67
2022/12/17 13:36:02;;;;;;;41.40;18.30;;;;;;;;;;4993474;28;20424;-66
2022/12/17 13:38:45;;;;;;;35.65;16.95;;;;;;;;;;4992706;28;20034;-66
2022/12/17 13:41:16;;;;;;;39.13;16.65;;;;;;;;;;4993053;28;20085;-66
2022/12/17 13:43:48;;;;;;;35.38;19.23;;;;;;;;;;4991057;28;20022;-67
2022/12/17 13:46:18;;;;;;;36.47;18.85;;;;;;;;;;4991886;28;20095;-67
2022/12/17 13:48:51;;;;;;;35.58;17.98;;;;;;;;;;4992768;28;20117;-65
2022/12/17 13:51:18;;;;;;;34.30;17.33;;;;;;;;;;4992366;28;20027;-67
2022/12/17 13:53:51;;;;;;;34.35;17.42;;;;;;;;;;4989775;28;20084;-67
2022/12/17 13:56:22;;;;;;;41.65;19.10;;;;;;;;;;4991951;28;20105;-66
2022/12/17 13:58:51;;;;;;;39.67;20.30;;;;;;;;;;4992928;28;20368;-66
2022/12/17 14:01:17;;;;;;;35.88;19.55;;;;;;;;;;4992218;28;20029;-62
2022/12/17 14:03:44;;;;;;;38.13;19.55;;;;;;;;;;4991582;28;20018;-65
2022/12/17 14:06:11;;;;;;;44.15;19.50;;;;;;;;;;4992311;28;20054;-63
2022/12/17 14:08:37;;;;;;;41.13;19.85;;;;;;;;;;4992238;28;20026;-67
2022/12/17 14:13:49;;;;;;;49.50;21.38;;;;;;;;;;4991849;28;20044;-66
2022/12/17 14:16:19;;;;;;;44.33;21.33;;;;;;;;;;4992564;28;20026;-65
2022/12/17 14:18:47;;;;;;;51.13;25.13;;;;;;;;;;4990831;28;20022;-65
2022/12/17 14:21:13;;;;;;;54.42;22.35;;;;;;;;;;4991970;28;20030;-66
2022/12/17 14:23:40;;;;;;;52.97;22.20;;;;;;;;;;4990114;28;20034;-63
2022/12/17 14:26:08;;;;;;;53.05;23.65;;;;;;;;;;4992615;28;20022;-66
2022/12/17 14:28:34;;;;;;;;;;;;;;;;;;4992682;28;20033;-66
2022/12/17 14:31:04;;;;;;;51.80;24.25;;;;;;;;;;4991591;28;19910;-64
2022/12/17 14:33:31;;;;;;;55.70;25.00;;;;;;;;;;4991374;28;20038;-67
2022/12/17 14:35:58;;;;;;;60.38;24.08;;;;;;;;;;4990647;28;20120;-64
2022/12/17 14:38:25;;;;;;;54.45;25.83;;;;;;;;;;4991653;28;20026;-65
2022/12/17 14:40:51;;;;;;;65.28;28.63;;;;;;;;;;4991766;28;20026;-64
2022/12/17 14:43:22;;;;;;;57.90;26.80;;;;;;;;;;4990811;28;20029;-65
2022/12/17 14:51:28;;;;;;;69.63;26.98;;;;;;;;;;4992429;28;20029;-66
2022/12/17 14:54:13;;;;;;;78.45;30.55;;;;;;;;;;4991749;28;20018;-65
2022/12/17 14:56:40;;;;;;;72.40;29.95;;;;;;;;;;4990890;28;20088;-66
2022/12/17 14:59:22;;;;;;;74.00;31.13;;;;;;;;;;4992207;28;20467;-66
2022/12/17 15:01:48;;;;;;;76.30;32.47;;;;;;;;;;4640881;28;9999923;-66
2022/12/17 15:04:15;;;;;;;71.63;30.15;;;;;;;;;;4987568;28;20022;-64
2022/12/17 15:06:41;;;;;;;87.85;33.85;;;;;;;;;;4987346;28;20022;-63
2022/12/17 15:09:09;;;;;;;70.38;29.67;;;;;;;;;;4988346;28;20519;-64
2022/12/17 15:11:35;;;;;;;67.55;30.73;;;;;;;;;;4988641;28;20422;-65
2022/12/17 15:14:01;;;;;;;80.95;31.88;;;;;;;;;;4987612;28;20053;-65
2022/12/17 15:16:28;;;;;;;69.13;29.73;;;;;;;;;;4986885;28;20108;-65
2022/12/17 15:18:54;;;;;;;66.90;28.38;;;;;;;;;;4988631;28;20038;-64
2022/12/17 15:21:20;;;;;;;71.80;31.52;;;;;;;;;;4993014;28;20026;-66
2022/12/17 15:23:46;;;;;;;69.35;29.30;;;;;;;;;;4991715;28;20336;-66
2022/12/17 15:26:16;;;;;;;68.57;31.20;;;;;;;;;;4990763;28;20026;-66
2022/12/17 15:28:42;;;;;;;72.28;31.92;;;;;;;;;;4990793;28;20601;-65
2022/12/17 15:31:09;;;;;;;69.43;30.95;;;;;;;;;;4992362;28;20034;-65
2022/12/17 15:33:35;;;;;;;65.75;27.42;;;;;;;;;;4991554;28;20026;-65
2022/12/17 15:36:01;;;;;;;68.25;30.80;;;;;;;;;;4992785;28;20025;-66
2022/12/17 15:38:27;;;;;;;69.22;30.83;;;;;;;;;;4992278;28;20030;-64
2022/12/17 15:40:53;;;;;;;64.68;30.88;;;;;;;;;;4991933;28;20398;-66
2022/12/17 15:43:19;;;;;;;67.85;31.00;;;;;;;;;;4991640;28;20046;-65
2022/12/17 15:45:49;;;;;;;64.22;28.17;;;;;;;;;;4990782;28;20049;-66
2022/12/17 15:48:17;;;;;;;64.53;29.17;;;;;;;;;;4992542;28;20105;-66
2022/12/17 15:50:43;;;;;;;66.55;30.27;;;;;;;;;;4991633;28;20048;-66
2022/12/17 15:53:12;;;;;;;60.78;27.13;;;;;;;;;;4991113;28;20133;-68
2022/12/17 15:55:38;;;;;;;57.55;27.92;;;;;;;;;;4990632;28;20033;-66
2022/12/17 15:58:05;;;;;;;70.85;32.08;;;;;;;;;;4991920;28;20033;-66
2022/12/17 16:00:31;;;;;;;63.72;29.80;;;;;;;;;;4991703;28;20114;-66
2022/12/17 16:02:57;;;;;;;75.97;30.58;;;;;;;;;;4991127;28;20034;-66
2022/12/17 16:05:23;;;;;;;62.72;31.00;;;;;;;;;;4644727;28;9999622;-67
2022/12/17 16:07:50;;;;;;;66.10;29.88;;;;;;;;;;4991799;28;20063;-67
2022/12/17 16:10:16;;;;;;;61.90;29.48;;;;;;;;;;4991577;28;20387;-67
2022/12/17 16:12:43;;;;;;;61.50;28.40;;;;;;;;;;4992273;28;20038;-66
2022/12/17 16:15:09;;;;;;;69.75;31.63;;;;;;;;;;4991045;28;20035;-64
2022/12/17 16:17:36;;;;;;;63.13;29.85;;;;;;;;;;4990221;28;20053;-65
2022/12/17 16:20:02;;;;;;;64.80;28.63;;;;;;;;;;4989927;28;20032;-65
2022/12/17 16:22:28;;;;;;;68.70;29.48;;;;;;;;;;4991501;28;20117;-65
2022/12/17 16:24:54;;;;;;;64.28;32.55;;;;;;;;;;4989279;28;20495;-65
2022/12/17 16:27:23;;;;;;;66.93;31.48;;;;;;;;;;4990859;28;20034;-65
2022/12/17 16:29:49;;;;;;;62.58;27.90;;;;;;;;;;4990692;28;20418;-65
2022/12/17 16:32:16;;;;;;;62.60;27.95;;;;;;;;;;4988745;28;20035;-65
2022/12/17 16:34:43;;;;;;;64.75;29.17;;;;;;;;;;4989691;28;20396;-64
2022/12/17 16:37:09;;;;;;;68.93;30.63;;;;;;;;;;4991677;28;20034;-66
2022/12/17 16:39:35;;;;;;;64.15;27.92;;;;;;;;;;4990878;28;20042;-65
2022/12/17 16:42:01;;;;;;;67.72;28.80;;;;;;;;;;4991465;28;20022;-65
2022/12/17 16:44:27;;;;;;;56.28;25.88;;;;;;;;;;4989200;28;20023;-65
2022/12/17 16:46:53;;;;;;;64.00;31.48;;;;;;;;;;4991311;28;20521;-66
2022/12/17 16:49:20;;;;;;;59.55;26.17;;;;;;;;;;4990746;28;20042;-66
2022/12/17 16:51:50;;;;;;;55.47;27.60;;;;;;;;;;4989213;28;20059;-65
2022/12/17 16:54:18;;;;;;;65.22;28.67;;;;;;;;;;4990093;28;20053;-65
2022/12/17 16:56:45;;;;;;;58.67;29.92;;;;;;;;;;4989596;28;20785;-65
2022/12/17 16:59:12;;;;;;;74.57;28.80;;;;;;;;;;4989638;28;20089;-65
2022/12/17 17:01:39;;;;;;;70.38;28.75;;;;;;;;;;4989640;28;20364;-65
2022/12/17 17:04:08;;;;;;;60.08;29.17;;;;;;;;;;4989321;28;20517;-65
2022/12/17 17:06:39;;;;;;;69.43;32.42;;;;;;;;;;4990846;28;20031;-65
2022/12/17 17:09:05;;;;;;;69.65;33.70;;;;;;;;;;4989197;28;20073;-65
2022/12/17 17:11:31;;;;;;;70.82;30.98;;;;;;;;;;4991038;28;20019;-66
2022/12/17 17:13:57;;;;;;;72.45;30.35;;;;;;;;;;4989721;28;20058;-63
2022/12/17 17:16:24;;;;;;;62.13;31.60;;;;;;;;;;4990326;28;20029;-65
2022/12/17 17:18:50;;;;;;;68.30;32.50;;;;;;;;;;4990875;28;20034;-66
2022/12/17 17:21:20;;;;;;;69.15;29.98;;;;;;;;;;4990001;28;20042;-67
2022/12/17 17:23:47;;;;;;;70.43;28.40;;;;;;;;;;4989490;28;20046;-64
2022/12/17 17:26:13;;;;;;;65.85;29.45;;;;;;;;;;4990326;28;20026;-65
2022/12/17 17:28:40;;;;;;;65.07;30.20;;;;;;;;;;4990172;28;20025;-66
2022/12/17 17:31:07;;;;;;;58.15;27.63;;;;;;;;;;4989065;28;20058;-65
2022/12/17 17:33:34;;;;;;;63.42;27.73;;;;;;;;;;4989424;28;20446;-65
2022/12/17 17:36:23;;;;;;;58.50;27.35;;;;;;;;;;4990171;28;20089;-67
2022/12/17 17:38:50;;;;;;;58.10;28.30;;;;;;;;;;4986949;28;20042;-66
2022/12/17 17:41:18;;;;;;;59.08;28.08;;;;;;;;;;4989670;28;20058;-65
2022/12/17 17:43:44;;;;;;;54.45;26.98;;;;;;;;;;4989033;28;20117;-66
2022/12/17 17:46:14;;;;;;;55.13;26.65;;;;;;;;;;4990118;28;20363;-66
2022/12/17 17:48:41;;;;;;;61.00;28.48;;;;;;;;;;4988475;28;20037;-65
2022/12/17 17:51:08;;;;;;;52.90;25.23;;;;;;;;;;5045784;23;20081;-65
2022/12/17 17:53:35;;;;;;;53.58;26.60;;;;;;;;;;5027305;28;20025;-66
2022/12/17 17:56:02;;;;;;;51.45;26.27;;;;;;;;;;5028051;28;20024;-65
2022/12/17 17:58:28;;;;;;;58.63;26.50;;;;;;;;;;5028143;28;20061;-65
2022/12/17 18:00:54;;;;;;;52.00;24.55;;;;;;;;;;5028370;28;20626;-66
2022/12/17 18:03:20;;;;;;;52.72;24.60;;;;;;;;;;5025626;28;20532;-64
2022/12/17 18:05:46;;;;;;;43.72;22.67;;;;;;;;;;5028528;28;20497;-66
2022/12/17 18:08:12;;;;;;;48.55;23.88;;;;;;;;;;5030153;28;20025;-65
2022/12/17 18:10:38;;;;;;;51.78;25.33;;;;;;;;;;5030393;28;20026;-66
2022/12/17 18:15:49;;;;;;;53.10;25.13;;;;;;;;;;5026032;28;20051;-65
2022/12/17 18:18:18;;;;;;;53.75;25.52;;;;;;;;;;5029118;28;20565;-65
2022/12/17 18:20:44;;;;;;;54.75;25.10;;;;;;;;;;5029592;28;20032;-64
2022/12/17 18:23:10;;;;;;;53.75;26.10;;;;;;;;;;5030630;28;20022;-64
2022/12/17 18:25:36;;;;;;;46.80;23.02;;;;;;;;;;5030577;28;20025;-65
2022/12/17 18:28:02;;;;;;;59.33;29.00;;;;;;;;;;5029425;28;20033;-65
2022/12/17 18:30:33;;;;;;;52.35;26.40;;;;;;;;;;4845766;28;10001257;-64
2022/12/17 18:32:59;;;;;;;56.00;28.25;;;;;;;;;;5027286;28;20285;-65
2022/12/17 18:35:26;;;;;;;61.97;28.42;;;;;;;;;;5028117;28;20079;-65
2022/12/17 18:37:52;;;;;;;54.80;26.67;;;;;;;;;;5027271;28;20030;-66
2022/12/17 18:40:18;;;;;;;54.83;26.08;;;;;;;;;;5025552;28;20021;-66
2022/12/17 18:45:28;;;;;;;56.13;27.58;;;;;;;;;;5027628;28;20633;-66
2022/12/17 18:47:54;;;;;;;51.05;24.70;;;;;;;;;;5027590;28;20029;-64
2022/12/17 18:50:20;;;;;;;56.63;26.15;;;;;;;;;;5027803;28;20037;-67
2022/12/17 18:52:46;;;;;;;61.10;29.77;;;;;;;;;;5027212;28;20025;-66
2022/12/17 18:55:12;;;;;;;55.42;26.75;;;;;;;;;;5025121;28;20449;-65
2022/12/17 18:57:39;;;;;;;58.20;28.58;;;;;;;;;;5026756;28;20029;-67
2022/12/17 19:00:05;;;;;;;56.20;26.75;;;;;;;;;;5026712;28;20124;-65
2022/12/17 19:02:31;;;;;;;55.80;25.45;;;;;;;;;;5026994;28;20040;-65
2022/12/17 19:04:57;;;;;;;55.17;26.85;;;;;;;;;;5026278;28;20018;-66
2022/12/17 19:07:23;;;;;;;51.15;24.15;;;;;;;;;;5011219;28;20041;-66
2022/12/17 19:09:49;;;;;;;58.22;26.30;;;;;;;;;;5010752;28;20013;-66
2022/12/17 19:12:15;;;;;;;56.10;28.05;;;;;;;;;;5025836;28;20103;-65
2022/12/17 19:14:42;;;;;;;50.70;25.40;;;;;;;;;;5024903;28;20026;-66
2022/12/17 19:17:08;;;;;;;66.22;30.02;;;;;;;;;;5026611;28;20026;-66
2022/12/17 19:19:34;;;;;;;55.78;26.33;;;;;;;;;;5026128;28;20083;-65
2022/12/17 19:22:02;;;;;;;51.72;26.50;;;;;;;;;;5026710;28;20113;-65
2022/12/17 19:24:28;;;;;;;54.58;26.30;;;;;;;;;;5024941;28;20021;-66
2022/12/17 19:26:54;;;;;;;56.17;27.45;;;;;;;;;;5025114;28;20037;-66
2022/12/17 19:29:21;;;;;;;57.22;29.05;;;;;;;;;;5025512;28;20034;-66
2022/12/17 19:31:47;;;;;;;57.85;27.73;;;;;;;;;;5026758;28;20112;-65
2022/12/17 19:34:14;;;;;;;48.78;26.30;;;;;;;;;;5026123;28;20040;-63
2022/12/17 19:36:41;;;;;;;54.60;27.63;;;;;;;;;;5026765;28;20029;-65
2022/12/17 19:39:08;;;;;;;58.03;28.35;;;;;;;;;;5026891;28;20636;-64
2022/12/17 19:41:34;;;;;;;68.20;30.55;;;;;;;;;;5025002;28;20313;-65
2022/12/17 19:44:05;;;;;;;61.83;31.98;;;;;;;;;;5025439;28;20028;-67
2022/12/17 19:46:31;;;;;;;64.45;28.55;;;;;;;;;;5026784;28;20026;-60
2022/12/17 19:48:57;;;;;;;68.82;31.90;;;;;;;;;;5025360;28;20144;-66
2022/12/17 19:51:25;;;;;;;68.80;30.48;;;;;;;;;;5026381;28;20108;-65
2022/12/17 19:53:51;;;;;;;67.63;31.80;;;;;;;;;;5025851;28;20033;-66
2022/12/17 19:56:21;;;;;;;64.22;29.20;;;;;;;;;;5024913;28;20017;-65
2022/12/17 19:58:51;;;;;;;58.92;29.73;;;;;;;;;;5026895;28;20500;-64
2022/12/17 20:01:21;;;;;;;59.38;27.67;;;;;;;;;;5026426;28;20092;-65
2022/12/17 20:03:47;;;;;;;53.63;25.00;;;;;;;;;;5024508;28;20029;-66
2022/12/17 20:06:15;;;;;;;49.35;24.50;;;;;;;;;;5028313;28;20028;-64
2022/12/17 20:08:41;;;;;;;53.35;23.08;;;;;;;;;;5029490;28;20156;-67
2022/12/17 20:11:31;;;;;;;54.40;26.63;;;;;;;;;;5031157;28;20065;-66
2022/12/17 20:13:58;;;;;;;57.70;27.50;;;;;;;;;;5030951;28;20029;-66
2022/12/17 20:16:24;;;;;;;47.28;23.83;;;;;;;;;;5031813;28;20323;-65
2022/12/17 20:18:50;;;;;;;50.63;23.02;;;;;;;;;;4683035;28;10000659;-65
2022/12/17 20:21:16;;;;;;;46.28;22.80;;;;;;;;;;5029397;28;20234;-67
2022/12/17 20:23:45;;;;;;;48.53;24.05;;;;;;;;;;5029267;28;20432;-65
2022/12/17 20:26:11;;;;;;;58.28;26.55;;;;;;;;;;5028331;28;20123;-66
2022/12/17 20:28:38;;;;;;;52.63;23.27;;;;;;;;;;5029720;28;20477;-67
2022/12/17 20:31:04;;;;;;;50.72;25.20;;;;;;;;;;5029899;28;20654;-66
2022/12/17 20:33:30;;;;;;;53.28;25.10;;;;;;;;;;5028415;28;20033;-66
2022/12/17 20:36:02;;;;;;;62.63;24.70;;;;;;;;;;5029288;28;20490;-66
2022/12/17 20:38:28;;;;;;;49.60;23.33;;;;;;;;;;5029324;28;20532;-66
2022/12/17 20:40:54;;;;;;;54.90;23.92;;;;;;;;;;5029859;28;20037;-65
2022/12/17 20:43:20;;;;;;;58.10;25.90;;;;;;;;;;5028967;28;20326;-66
2022/12/17 20:45:47;;;;;;;59.85;27.25;;;;;;;;;;5029714;28;20112;-66
2022/12/17 20:48:13;;;;;;;56.67;25.00;;;;;;;;;;5030797;28;20033;-66
2022/12/17 20:50:39;;;;;;;51.83;25.13;;;;;;;;;;5032135;28;20037;-67
2022/12/17 20:53:06;;;;;;;49.75;23.58;;;;;;;;;;5031460;28;20076;-66
2022/12/17 20:55:32;;;;;;;49.55;23.85;;;;;;;;;;4680816;28;10000044;-66
2022/12/17 20:57:58;;;;;;;52.50;23.27;;;;;;;;;;5029206;28;20033;-67
2022/12/17 21:00:24;;;;;;;54.83;25.27;;;;;;;;;;5027658;28;20505;-68
2022/12/17 21:02:50;;;;;;;55.63;23.52;;;;;;;;;;5027851;28;20045;-67
2022/12/17 21:05:17;;;;;;;51.80;25.52;;;;;;;;;;5028360;28;20048;-67
2022/12/17 21:07:43;;;;;;;43.33;23.08;;;;;;;;;;5028414;28;20223;-67
2022/12/17 21:10:10;;;;;;;47.35;23.33;;;;;;;;;;5028702;28;20037;-67
2022/12/17 21:15:21;;;;;;;54.60;23.42;;;;;;;;;;5028400;28;20095;-67
2022/12/17 21:17:47;;;;;;;52.03;25.27;;;;;;;;;;5027427;28;20029;-61
2022/12/17 21:20:13;;;;;;;46.30;24.83;;;;;;;;;;5027182;28;20064;-65
2022/12/17 21:22:39;;;;;;;50.22;25.17;;;;;;;;;;5027306;28;20438;-63
2022/12/17 21:25:06;;;;;;;52.42;24.75;;;;;;;;;;5028046;28;20026;-65
2022/12/17 21:27:33;;;;;;;48.05;23.48;;;;;;;;;;5027205;28;20025;-65
2022/12/17 21:29:59;;;;;;;50.47;23.88;;;;;;;;;;5027814;28;20104;-66
2022/12/17 21:32:25;;;;;;;45.33;22.20;;;;;;;;;;5028214;28;20029;-65
2022/12/17 21:34:51;;;;;;;47.08;23.30;;;;;;;;;;5025938;28;20021;-65
2022/12/17 21:37:17;;;;;;;54.33;25.20;;;;;;;;;;5026929;28;20068;-65
2022/12/17 21:39:43;;;;;;;47.55;23.48;;;;;;;;;;5028326;28;20382;-66
2022/12/17 21:44:54;;;;;;;46.22;23.73;;;;;;;;;;5027371;28;20079;-65
2022/12/17 21:47:20;;;;;;;50.63;23.90;;;;;;;;;;5027689;28;20025;-66
2022/12/17 21:49:47;;;;;;;47.17;24.10;;;;;;;;;;5026290;28;20065;-65
2022/12/17 21:52:13;;;;;;;51.22;24.50;;;;;;;;;;5028126;28;20100;-66
2022/12/17 21:54:39;;;;;;;46.85;22.30;;;;;;;;;;5027739;28;20037;-64
2022/12/17 21:57:05;;;;;;;45.25;23.42;;;;;;;;;;5028107;28;20148;-66
2022/12/17 21:59:31;;;;;;;46.05;21.90;;;;;;;;;;5028058;28;20041;-66
2022/12/17 22:01:57;;;;;;;49.40;22.20;;;;;;;;;;5027965;28;20210;-67
2022/12/17 22:04:23;;;;;;;44.75;21.17;;;;;;;;;;5025139;28;20052;-64
2022/12/17 22:06:49;;;;;;;50.97;21.30;;;;;;;;;;5026805;28;20053;-67
2022/12/17 22:09:16;;;;;;;50.75;21.85;;;;;;;;;;5029752;28;20033;-67
2022/12/17 22:11:42;;;;;;;60.17;27.40;;;;;;;;;;5031274;28;20025;-70
2022/12/17 22:14:11;;;;;;;46.72;21.32;;;;;;;;;;4683339;28;10000993;-69
2022/12/17 22:16:45;;;;;;;45.90;24.08;;;;;;;;;;5008639;28;20072;-66
2022/12/17 22:19:15;;;;;;;48.85;24.70;;;;;;;;;;5009970;28;20048;-66
2022/12/17 22:21:41;;;;;;;49.55;24.25;;;;;;;;;;5008593;28;20026;-67
2022/12/17 22:24:12;;;;;;;52.47;25.60;;;;;;;;;;5008278;28;20544;-67
2022/12/17 22:26:38;;;;;;;48.42;24.08;;;;;;;;;;5008683;28;20018;-65
2022/12/17 22:29:04;;;;;;;43.80;22.67;;;;;;;;;;5008000;28;20052;-65
2022/12/17 22:34:15;;;;;;;42.20;21.67;;;;;;;;;;5009013;28;20056;-67
2022/12/17 22:36:41;;;;;;;39.22;18.60;;;;;;;;;;5009627;28;20025;-65
2022/12/17 22:39:09;;;;;;;49.17;22.63;;;;;;;;;;5009348;28;20052;-70
2022/12/17 22:44:20;;;;;;;45.33;21.35;;;;;;;;;;5009001;28;20081;-68
2022/12/17 22:46:46;;;;;;;43.78;20.60;;;;;;;;;;5007833;28;20092;-69
2022/12/17 22:49:12;;;;;;;46.13;22.50;;;;;;;;;;5016390;28;20021;-69
2022/12/17 22:51:39;;;;;;;40.05;21.27;;;;;;;;;;5027049;28;20089;-70
2022/12/17 22:54:08;;;;;;;42.83;20.60;;;;;;;;;;5027991;28;20440;-68
2022/12/17 22:56:38;;;;;;;45.92;20.30;;;;;;;;;;5028860;28;20031;-67
2022/12/17 22:59:05;;;;;;;51.45;22.95;;;;;;;;;;5027478;28;20029;-67
2022/12/17 23:01:31;;;;;;;45.17;20.30;;;;;;;;;;5027100;28;20036;-67
2022/12/17 23:03:58;;;;;;;44.03;20.98;;;;;;;;;;5026553;28;20026;-66
2022/12/17 23:06:24;;;;;;;42.17;22.35;;;;;;;;;;5028970;28;20429;-66
2022/12/17 23:08:50;;;;;;;44.65;21.52;;;;;;;;;;5028500;28;20386;-68
2022/12/17 23:11:17;;;;;;;45.67;22.25;;;;;;;;;;5028218;28;20032;-67
2022/12/17 23:13:44;;;;;;;47.60;21.47;;;;;;;;;;5027797;28;20029;-67
2022/12/17 23:16:10;;;;;;;42.97;21.23;;;;;;;;;;5026573;28;20176;-67
2022/12/17 23:18:36;;;;;;;51.78;21.92;;;;;;;;;;5026836;28;20124;-68
2022/12/17 23:21:07;;;;;;;54.65;22.40;;;;;;;;;;5027442;28;20049;-68
2022/12/17 23:23:33;;;;;;;54.95;25.58;;;;;;;;;;5028311;28;20037;-72
2022/12/17 23:26:05;;;;;;;46.53;22.55;;;;;;;;;;5028784;28;20545;-71
2022/12/17 23:28:31;;;;;;;47.30;22.90;;;;;;;;;;5027763;28;20512;-72
2022/12/17 23:30:57;;;;;;;55.17;21.08;;;;;;;;;;5029061;28;20026;-73
2022/12/17 23:33:23;;;;;;;50.97;23.58;;;;;;;;;;5029588;28;20541;-73
2022/12/17 23:35:48;;;;;;;50.10;23.38;;;;;;;;;;5030347;28;20060;-74
2022/12/17 23:38:14;;;;;;;53.53;25.52;;;;;;;;;;5029762;28;20149;-72
2022/12/17 23:40:40;;;;;;;51.70;23.45;;;;;;;;;;5032795;28;20468;-74
2022/12/17 23:43:06;;;;;;;52.80;23.58;;;;;;;;;;5033870;28;20022;-75
2022/12/17 23:45:32;;;;;;;51.30;25.58;;;;;;;;;;5035347;28;20470;-75
2022/12/17 23:47:58;;;;;;;53.22;22.50;;;;;;;;;;5034839;28;20056;-73
2022/12/17 23:50:24;;;;;;;54.80;27.75;;;;;;;;;;5056813;23;20080;-64
2022/12/17 23:52:50;;;;;;;52.53;25.92;;;;;;;;;;5050438;28;20029;-63
2022/12/17 23:55:17;;;;;;;51.65;23.58;;;;;;;;;;5034238;28;20096;-65
2022/12/17 23:57:43;;;;;;;46.30;23.52;;;;;;;;;;5035063;28;20032;-64
